createdAt,value
2019-02-04T00:00:13.558Z,73.50
2019-02-04T00:02:42.247Z,72.40
2019-02-04T00:05:10.449Z,72.20
2019-02-04T00:07:38.651Z,71.80
2019-02-04T00:10:10.051Z,71.40
2019-02-04T00:12:38.264Z,72.20
2019-02-04T00:15:08.400Z,72.00
2019-02-04T00:17:36.864Z,71.80
2019-02-04T00:20:09.952Z,71.60
2019-02-04T00:22:38.161Z,70.90
2019-02-04T00:25:07.208Z,70.90
2019-02-04T00:27:35.415Z,72.20
2019-02-04T00:30:05.508Z,73.60
2019-02-04T00:32:33.784Z,74.80
2019-02-04T00:35:01.985Z,77.50
2019-02-04T00:37:30.189Z,76.80
2019-02-04T00:39:58.387Z,73.80
2019-02-04T00:42:26.592Z,74.20
2019-02-04T00:44:54.836Z,73.00
2019-02-04T00:47:23.372Z,72.60
2019-02-04T00:49:51.565Z,72.80
2019-02-04T00:52:19.768Z,72.70
2019-02-04T00:54:48.032Z,72.40
2019-02-04T00:57:16.232Z,72.50
2019-02-04T00:59:44.435Z,72.60
2019-02-04T01:02:12.916Z,72.30
2019-02-04T01:04:41.120Z,74.10
2019-02-04T01:07:09.381Z,75.80
2019-02-04T01:09:37.583Z,76.00
2019-02-04T01:12:05.790Z,73.60
2019-02-04T01:14:33.996Z,73.70
2019-02-04T01:17:03.382Z,73.10
2019-02-04T01:19:32.188Z,72.60
2019-02-04T01:22:01.059Z,73.10
2019-02-04T01:24:29.260Z,72.60
2019-02-04T01:26:57.459Z,72.80
2019-02-04T01:29:25.680Z,73.00
2019-02-04T01:31:53.871Z,73.10
2019-02-04T01:34:22.151Z,73.70
2019-02-04T01:36:50.344Z,72.90
2019-02-04T01:39:18.552Z,73.00
2019-02-04T01:41:46.760Z,73.80
2019-02-04T01:44:14.959Z,73.00
2019-02-04T01:46:43.156Z,73.40
2019-02-04T01:49:11.639Z,72.90
2019-02-04T01:51:39.835Z,73.20
2019-02-04T01:54:08.047Z,72.90
2019-02-04T01:56:36.235Z,72.90
2019-02-04T01:59:04.445Z,73.30
2019-02-04T02:01:32.652Z,73.30
2019-02-04T02:04:00.851Z,73.40
2019-02-04T02:06:29.035Z,73.60
2019-02-04T02:08:57.236Z,74.00
2019-02-04T02:11:25.443Z,73.60
2019-02-04T02:13:53.635Z,73.60
2019-02-04T02:16:21.848Z,73.80
2019-02-04T02:18:50.040Z,74.00
2019-02-04T02:21:18.251Z,73.90
2019-02-04T02:23:46.449Z,74.90
2019-02-04T02:26:14.648Z,76.20
2019-02-04T02:28:42.846Z,79.10
2019-02-04T02:31:11.044Z,76.40
2019-02-04T02:33:39.241Z,75.50
2019-02-04T02:36:07.824Z,75.30
2019-02-04T02:38:36.029Z,74.90
2019-02-04T02:41:04.232Z,75.00
2019-02-04T02:43:32.424Z,75.00
2019-02-04T02:46:00.632Z,75.50
2019-02-04T02:48:28.837Z,75.20
2019-02-04T02:50:57.048Z,75.60
2019-02-04T02:53:25.246Z,75.30
2019-02-04T02:55:53.460Z,75.00
2019-02-04T02:58:21.698Z,75.00
2019-02-04T03:00:49.940Z,75.20
2019-02-04T03:03:18.151Z,75.10
2019-02-04T03:05:46.351Z,75.20
2019-02-04T03:08:14.932Z,75.20
2019-02-04T03:10:43.142Z,75.20
2019-02-04T03:13:11.348Z,74.60
2019-02-04T03:15:39.555Z,75.30
2019-02-04T03:18:07.751Z,75.50
2019-02-04T03:20:35.951Z,75.30
2019-02-04T03:23:04.640Z,75.50
2019-02-04T03:25:32.838Z,75.40
2019-02-04T03:28:01.095Z,75.20
2019-02-04T03:30:31.366Z,75.20
2019-02-04T03:32:59.563Z,75.40
2019-02-04T03:35:27.748Z,75.80
2019-02-04T03:37:55.970Z,77.70
2019-02-04T03:40:29.515Z,76.00
2019-02-04T03:42:57.740Z,75.60
2019-02-04T03:45:25.961Z,75.80
2019-02-04T03:48:04.498Z,75.60
2019-02-04T03:50:24.148Z,75.80
2019-02-04T03:52:53.064Z,75.80
2019-02-04T03:55:21.263Z,75.80
2019-02-04T03:57:49.468Z,76.00
2019-02-04T04:00:20.559Z,75.90
2019-02-04T04:02:48.770Z,75.90
2019-02-04T04:05:16.968Z,75.90
2019-02-04T04:07:45.448Z,75.80
2019-02-04T04:10:14.018Z,75.80
2019-02-04T04:12:42.221Z,76.00
2019-02-04T04:15:12.355Z,75.80
2019-02-04T04:17:40.567Z,76.00
2019-02-04T04:20:11.100Z,76.30
2019-02-04T04:22:39.484Z,76.40
2019-02-04T04:25:10.394Z,76.60
2019-02-04T04:27:38.601Z,76.80
2019-02-04T04:30:12.877Z,77.10
2019-02-04T04:32:41.085Z,77.10
2019-02-04T04:35:09.275Z,77.30
2019-02-04T04:37:37.480Z,77.10
2019-02-04T04:40:08.895Z,77.20
2019-02-04T04:42:37.091Z,77.10
2019-02-04T04:45:08.090Z,77.30
2019-02-04T04:47:36.297Z,77.10
2019-02-04T04:50:06.707Z,77.00
2019-02-04T04:52:34.919Z,77.00
2019-02-04T04:55:03.795Z,76.90
2019-02-04T04:57:31.995Z,76.60
2019-02-04T05:00:00.327Z,76.60
2019-02-04T05:02:28.680Z,76.30
2019-02-04T05:04:57.261Z,76.30
2019-02-04T05:07:25.455Z,76.50
2019-02-04T05:09:53.945Z,76.40
2019-02-04T05:12:22.144Z,76.50
2019-02-04T05:14:50.357Z,76.30
2019-02-04T05:17:18.552Z,76.20
2019-02-04T05:19:46.761Z,76.30
2019-02-04T05:22:15.141Z,76.20
2019-02-04T05:24:43.351Z,76.10
2019-02-04T05:27:11.555Z,76.20
2019-02-04T05:29:39.781Z,76.20
2019-02-04T05:32:07.976Z,76.00
2019-02-04T05:34:36.192Z,75.90
2019-02-04T05:37:04.765Z,75.80
2019-02-04T05:39:32.971Z,76.00
2019-02-04T05:42:01.189Z,76.10
2019-02-04T05:44:29.399Z,76.50
2019-02-04T05:46:57.597Z,76.70
2019-02-04T05:49:25.813Z,76.50
2019-02-04T05:51:55.143Z,76.70
2019-02-04T05:54:23.561Z,77.00
2019-02-04T05:56:51.769Z,77.60
2019-02-04T05:59:19.979Z,78.50
2019-02-04T06:01:48.179Z,78.80
2019-02-04T06:04:16.384Z,78.80
2019-02-04T06:06:44.581Z,80.90
2019-02-04T06:09:13.097Z,81.60
2019-02-04T06:11:41.297Z,81.60
2019-02-04T06:14:09.526Z,81.50
2019-02-04T06:16:37.725Z,82.10
2019-02-04T06:19:05.925Z,82.00
2019-02-04T06:21:34.150Z,82.00
2019-02-04T06:24:02.743Z,83.10
2019-02-04T06:26:30.955Z,82.40
2019-02-04T06:28:59.151Z,81.90
2019-02-04T06:31:27.371Z,82.10
2019-02-04T06:33:56.133Z,82.10
2019-02-04T06:36:24.352Z,82.20
2019-02-04T06:38:52.919Z,82.20
2019-02-04T06:41:21.130Z,81.90
2019-02-04T06:43:49.327Z,81.80
2019-02-04T06:46:17.551Z,82.00
2019-02-04T06:48:45.739Z,81.80
2019-02-04T06:51:14.256Z,82.20
2019-02-04T06:53:42.460Z,83.30
2019-02-04T06:56:10.672Z,82.60
2019-02-04T06:58:38.876Z,83.00
2019-02-04T07:01:07.088Z,83.20
2019-02-04T07:03:35.288Z,83.80
2019-02-04T07:06:03.496Z,83.20
2019-02-04T07:08:31.714Z,82.90
2019-02-04T07:11:00.289Z,83.00
2019-02-04T07:13:28.489Z,82.90
2019-02-04T07:15:56.697Z,82.80
2019-02-04T07:18:24.895Z,82.70
2019-02-04T07:20:53.108Z,82.20
2019-02-04T07:23:21.348Z,82.20
2019-02-04T07:25:49.552Z,81.60
2019-02-04T07:28:18.032Z,80.90
2019-02-04T07:30:46.240Z,80.00
2019-02-04T07:33:14.441Z,78.80
2019-02-04T07:35:42.658Z,76.80
2019-02-04T07:38:10.844Z,76.60
2019-02-04T07:40:39.048Z,73.30
2019-02-04T07:43:07.256Z,72.70
2019-02-04T07:45:35.470Z,70.40
2019-02-04T07:48:03.674Z,69.30
2019-02-04T07:50:31.864Z,67.80
2019-02-04T07:53:00.076Z,66.90
2019-02-04T07:55:28.279Z,65.20
2019-02-04T07:57:57.325Z,64.20
2019-02-04T08:00:31.977Z,63.30
2019-02-04T08:03:00.182Z,61.40
2019-02-04T08:05:28.462Z,58.70
2019-02-04T08:07:56.918Z,58.50
2019-02-04T08:10:25.112Z,57.50
2019-02-04T08:13:01.131Z,57.40
2019-02-04T08:15:28.898Z,57.40
2019-02-04T08:17:57.648Z,58.20
2019-02-04T08:20:26.581Z,61.60
2019-02-04T08:22:54.795Z,61.00
2019-02-04T08:25:25.840Z,59.60
2019-02-04T08:27:52.931Z,58.70
2019-02-04T08:30:32.461Z,58.40
2019-02-04T08:33:00.745Z,56.40
2019-02-04T08:35:28.999Z,56.60
2019-02-04T08:37:57.212Z,56.30
2019-02-04T08:40:25.436Z,55.70
2019-02-04T08:42:54.005Z,57.00
2019-02-04T08:45:22.203Z,54.80
2019-02-04T08:47:50.409Z,55.90
2019-02-04T08:50:20.552Z,55.80
2019-02-04T08:52:48.757Z,55.70
2019-02-04T08:55:16.954Z,54.90
2019-02-04T08:57:45.162Z,54.10
2019-02-04T09:00:18.744Z,53.20
2019-02-04T09:02:46.951Z,53.90
2019-02-04T09:05:16.184Z,54.20
2019-02-04T09:07:44.539Z,54.80
2019-02-04T09:10:16.005Z,55.60
2019-02-04T09:12:44.199Z,53.90
2019-02-04T09:15:16.231Z,54.50
2019-02-04T09:17:44.236Z,53.70
2019-02-04T09:20:15.189Z,53.20
2019-02-04T09:22:43.464Z,53.80
2019-02-04T09:25:14.240Z,53.40
2019-02-04T09:27:42.450Z,53.30
2019-02-04T09:30:19.477Z,53.80
2019-02-04T09:32:47.671Z,56.50
2019-02-04T09:35:20.562Z,54.50
2019-02-04T09:37:48.760Z,52.50
2019-02-04T09:40:22.555Z,53.30
2019-02-04T09:42:51.028Z,52.10
2019-02-04T09:45:19.243Z,50.30
2019-02-04T09:47:47.440Z,50.60
2019-02-04T09:50:21.732Z,52.90
2019-02-04T09:52:48.217Z,50.80
2019-02-04T09:55:24.694Z,47.40
2019-02-04T09:57:52.894Z,47.00
2019-02-04T10:00:23.641Z,48.60
2019-02-04T10:02:51.843Z,47.60
2019-02-04T10:05:20.291Z,47.10
2019-02-04T10:07:48.491Z,46.50
2019-02-04T10:10:21.830Z,46.60
2019-02-04T10:12:52.497Z,46.60
2019-02-04T10:15:22.411Z,47.10
2019-02-04T10:17:50.609Z,48.50
2019-02-04T10:20:18.887Z,47.20
2019-02-04T10:22:47.092Z,48.10
2019-02-04T10:25:21.733Z,48.70
2019-02-04T10:27:50.014Z,48.10
2019-02-04T10:30:20.343Z,47.80
2019-02-04T10:32:48.674Z,46.50
2019-02-04T10:35:17.422Z,46.30
2019-02-04T10:37:47.341Z,47.70
2019-02-04T10:40:20.477Z,46.70
2019-02-04T10:42:48.715Z,45.40
2019-02-04T10:45:18.442Z,45.70
2019-02-04T10:47:46.752Z,46.60
2019-02-04T10:50:23.849Z,46.70
2019-02-04T10:52:52.126Z,47.00
2019-02-04T10:55:20.357Z,48.30
2019-02-04T10:57:48.597Z,51.90
2019-02-04T11:00:25.715Z,49.80
2019-02-04T11:02:53.951Z,48.00
2019-02-04T11:05:24.613Z,46.40
2019-02-04T11:07:52.901Z,48.10
2019-02-04T11:10:23.058Z,49.80
2019-02-04T11:12:51.333Z,51.60
2019-02-04T11:15:19.647Z,47.60
2019-02-04T11:17:47.848Z,46.20
2019-02-04T11:20:19.441Z,46.50
2019-02-04T11:22:47.684Z,48.90
2019-02-04T11:25:15.938Z,48.50
2019-02-04T11:27:44.229Z,46.70
2019-02-04T11:30:18.324Z,48.00
2019-02-04T11:32:46.524Z,50.90
2019-02-04T11:35:14.816Z,47.80
2019-02-04T11:37:43.025Z,49.10
2019-02-04T11:40:38.140Z,49.00
2019-02-04T11:43:06.739Z,50.60
2019-02-04T11:45:35.049Z,44.50
2019-02-04T11:48:04.921Z,44.80
2019-02-04T11:50:33.168Z,48.10
2019-02-04T11:53:01.380Z,48.70
2019-02-04T11:55:29.582Z,47.20
2019-02-04T11:57:57.797Z,45.00
2019-02-04T12:00:30.604Z,45.50
2019-02-04T12:03:00.453Z,46.00
2019-02-04T12:05:28.651Z,47.50
2019-02-04T12:07:56.886Z,45.50
2019-02-04T12:10:30.812Z,45.20
2019-02-04T12:12:59.395Z,45.30
2019-02-04T12:15:27.595Z,45.60
2019-02-04T12:17:56.122Z,44.90
2019-02-04T12:20:24.320Z,44.00
2019-02-04T12:22:52.538Z,44.90
2019-02-04T12:25:23.428Z,44.30
2019-02-04T12:27:52.012Z,43.20
2019-02-04T12:30:32.207Z,43.60
2019-02-04T12:33:01.251Z,42.00
2019-02-04T12:35:29.441Z,42.80
2019-02-04T12:37:57.648Z,42.60
2019-02-04T12:40:25.844Z,44.70
2019-02-04T12:42:54.438Z,43.30
2019-02-04T12:45:28.128Z,40.90
2019-02-04T12:47:56.856Z,41.60
2019-02-04T12:50:25.053Z,39.70
2019-02-04T12:52:53.264Z,39.60
2019-02-04T12:55:31.636Z,42.10
2019-02-04T12:57:59.874Z,38.80
2019-02-04T13:00:29.480Z,38.70
2019-02-04T13:02:57.694Z,38.10
2019-02-04T13:05:35.015Z,39.10
2019-02-04T13:08:03.769Z,38.50
2019-02-04T13:10:32.024Z,40.00
2019-02-04T13:13:00.249Z,42.20
2019-02-04T13:15:28.440Z,40.80
2019-02-04T13:17:56.648Z,38.70
2019-02-04T13:20:24.840Z,38.00
2019-02-04T13:22:53.044Z,37.10
2019-02-04T13:25:26.428Z,38.40
2019-02-04T13:27:54.673Z,37.70
2019-02-04T13:30:27.638Z,38.60
2019-02-04T13:32:56.167Z,38.90
2019-02-04T13:35:24.372Z,37.60
2019-02-04T13:37:53.044Z,37.10
2019-02-04T13:40:26.580Z,36.70
2019-02-04T13:42:54.842Z,38.50
2019-02-04T13:45:23.052Z,42.80
2019-02-04T13:47:53.460Z,35.70
2019-02-04T13:50:22.706Z,35.70
2019-02-04T13:52:51.845Z,37.60
2019-02-04T13:55:23.120Z,34.90
2019-02-04T13:57:51.332Z,34.80
2019-02-04T14:00:19.539Z,36.20
2019-02-04T14:02:58.510Z,34.80
2019-02-04T14:05:17.708Z,35.60
2019-02-04T14:07:45.903Z,36.10
2019-02-04T14:10:20.261Z,36.40
2019-02-04T14:12:48.458Z,37.10
2019-02-04T14:15:17.204Z,37.90
2019-02-04T14:17:45.387Z,37.10
2019-02-04T14:20:18.883Z,36.90
2019-02-04T14:22:47.076Z,36.60
2019-02-04T14:25:16.156Z,37.80
2019-02-04T14:27:44.340Z,36.60
2019-02-04T14:30:18.734Z,36.60
2019-02-04T14:32:47.209Z,36.40
2019-02-04T14:35:15.460Z,36.40
2019-02-04T14:37:45.100Z,37.40
2019-02-04T14:40:18.716Z,44.00
2019-02-04T14:42:45.697Z,36.50
2019-02-04T14:45:17.755Z,37.30
2019-02-04T14:47:49.253Z,37.10
2019-02-04T14:50:26.809Z,38.80
2019-02-04T14:53:16.653Z,38.30
2019-02-04T14:55:48.120Z,38.40
2019-02-04T14:58:25.307Z,38.60
2019-02-04T15:01:20.440Z,39.50
2019-02-04T15:04:00.825Z,40.60
2019-02-04T15:06:38.426Z,42.00
2019-02-04T15:09:26.505Z,41.80
2019-02-04T15:12:19.092Z,42.30
2019-02-04T15:14:56.500Z,42.40
2019-02-04T15:17:25.852Z,43.00
2019-02-04T15:20:16.940Z,43.50
2019-02-04T15:22:57.190Z,44.00
2019-02-04T15:25:46.771Z,45.00
2019-02-04T15:28:27.024Z,45.00
2019-02-04T15:31:04.628Z,45.00
2019-02-04T15:33:42.040Z,46.10
2019-02-04T15:36:19.323Z,46.70
2019-02-04T15:39:12.016Z,45.70
2019-02-04T15:41:55.105Z,46.10
2019-02-04T15:44:38.408Z,46.10
2019-02-04T15:47:12.448Z,46.70
2019-02-04T15:50:12.250Z,53.80
2019-02-04T15:52:45.486Z,46.80
2019-02-04T15:55:13.610Z,46.30
2019-02-04T15:57:41.896Z,46.40
2019-02-04T16:00:12.740Z,46.90
2019-02-04T16:02:40.964Z,47.10
2019-02-04T16:05:10.283Z,47.30
2019-02-04T16:07:38.768Z,47.10
2019-02-04T16:10:15.242Z,47.50
2019-02-04T16:12:43.439Z,47.80
2019-02-04T16:15:13.587Z,48.40
2019-02-04T16:17:41.789Z,48.00
2019-02-04T16:20:19.040Z,47.40
2019-02-04T16:22:57.753Z,46.80
2019-02-04T16:25:17.240Z,46.90
2019-02-04T16:27:45.444Z,46.90
2019-02-04T16:30:19.035Z,46.70
2019-02-04T16:32:47.248Z,47.60
2019-02-04T16:35:19.361Z,46.40
2019-02-04T16:37:48.304Z,46.30
2019-02-04T16:40:21.805Z,46.70
2019-02-04T16:42:50.047Z,46.90
2019-02-04T16:45:20.692Z,46.40
2019-02-04T16:47:49.328Z,46.60
2019-02-04T16:50:20.794Z,46.70
2019-02-04T16:52:48.988Z,46.60
2019-02-04T16:55:17.205Z,47.00
2019-02-04T16:57:45.406Z,47.20
2019-02-04T17:00:19.444Z,47.50
2019-02-04T17:02:47.918Z,47.40
2019-02-04T17:05:16.365Z,48.10
2019-02-04T17:07:44.564Z,47.40
2019-02-04T17:10:17.468Z,47.80
2019-02-04T17:12:45.669Z,48.30
2019-02-04T17:15:13.871Z,49.30
2019-02-04T17:17:42.246Z,48.80
2019-02-04T17:20:13.718Z,49.00
2019-02-04T17:22:41.912Z,48.60
2019-02-04T17:25:10.115Z,48.70
2019-02-04T17:27:38.389Z,49.20
2019-02-04T17:30:12.796Z,49.30
2019-02-04T17:32:41.275Z,49.20
2019-02-04T17:35:09.488Z,49.60
2019-02-04T17:37:37.699Z,50.00
2019-02-04T17:40:09.165Z,50.50
2019-02-04T17:42:37.372Z,50.80
2019-02-04T17:45:08.775Z,50.40
2019-02-04T17:47:36.972Z,50.40
2019-02-04T17:50:11.873Z,51.00
2019-02-04T17:52:40.152Z,51.60
2019-02-04T17:55:13.951Z,51.40
2019-02-04T17:57:42.153Z,52.00
2019-02-04T18:00:17.692Z,52.20
2019-02-04T18:02:45.877Z,51.90
2019-02-04T18:05:14.087Z,52.20
2019-02-04T18:07:42.300Z,52.60
2019-02-04T18:10:18.224Z,52.70
2019-02-04T18:12:46.796Z,53.10
2019-02-04T18:15:18.048Z,53.10
2019-02-04T18:17:46.262Z,53.10
2019-02-04T18:20:15.276Z,53.10
2019-02-04T18:22:43.497Z,53.40
2019-02-04T18:25:16.596Z,54.30
2019-02-04T18:27:44.803Z,53.60
2019-02-04T18:30:24.239Z,54.10
2019-02-04T18:32:52.470Z,53.90
2019-02-04T18:35:20.920Z,53.70
2019-02-04T18:37:49.296Z,53.70
2019-02-04T18:40:19.141Z,54.10
2019-02-04T18:42:47.723Z,54.10
2019-02-04T18:45:24.435Z,54.20
2019-02-04T18:47:52.642Z,54.30
2019-02-04T18:50:21.765Z,54.50
2019-02-04T18:52:50.349Z,54.20
2019-02-04T18:55:27.216Z,54.40
2019-02-04T18:57:55.427Z,54.30
2019-02-04T19:00:25.672Z,54.30
2019-02-04T19:02:53.887Z,55.50
2019-02-04T19:05:22.467Z,54.40
2019-02-04T19:07:50.682Z,54.50
2019-02-04T19:10:20.720Z,55.00
2019-02-04T19:12:48.938Z,55.10
2019-02-04T19:15:19.729Z,54.90
2019-02-04T19:17:48.328Z,55.30
2019-02-04T19:20:21.608Z,55.50
2019-02-04T19:22:49.815Z,55.70
2019-02-04T19:25:19.764Z,55.80
2019-02-04T19:27:48.113Z,56.30
2019-02-04T19:30:27.865Z,56.40
2019-02-04T19:32:56.453Z,56.40
2019-02-04T19:35:24.645Z,56.60
2019-02-04T19:37:52.852Z,56.50
2019-02-04T19:40:21.059Z,56.60
2019-02-04T19:42:49.306Z,57.10
2019-02-04T19:45:22.669Z,56.90
2019-02-04T19:47:51.258Z,56.70
2019-02-04T19:50:31.179Z,56.50
2019-02-04T19:52:59.388Z,56.40
2019-02-04T19:55:27.588Z,57.50
2019-02-04T19:57:55.791Z,56.60
2019-02-04T20:00:24.259Z,56.60
2019-02-04T20:02:53.315Z,56.90
2019-02-04T20:05:29.733Z,56.60
2019-02-04T20:07:58.308Z,57.00
2019-02-04T20:10:29.879Z,57.30
2019-02-04T20:12:58.175Z,57.60
2019-02-04T20:15:28.388Z,57.80
2019-02-04T20:17:56.617Z,57.10
2019-02-04T20:20:25.155Z,57.50
2019-02-04T20:22:53.351Z,57.30
2019-02-04T20:25:23.703Z,57.30
2019-02-04T20:27:51.901Z,57.40
2019-02-04T20:30:23.380Z,57.60
2019-02-04T20:32:51.893Z,57.70
2019-02-04T20:35:20.126Z,57.60
2019-02-04T20:37:48.320Z,57.80
2019-02-04T20:40:22.336Z,57.90
2019-02-04T20:42:50.537Z,58.30
2019-02-04T20:45:20.467Z,58.30
2019-02-04T20:47:50.304Z,58.40
2019-02-04T20:50:21.312Z,58.70
2019-02-04T20:52:49.517Z,58.70
2019-02-04T20:55:17.730Z,58.80
2019-02-04T20:57:45.927Z,58.80
2019-02-04T21:00:17.576Z,58.90
2019-02-04T21:02:45.764Z,59.40
2019-02-04T21:05:13.992Z,59.70
2019-02-04T21:07:42.272Z,59.30
2019-02-04T21:10:13.120Z,59.50
2019-02-04T21:12:41.319Z,60.10
2019-02-04T21:15:11.856Z,60.30
2019-02-04T21:17:40.068Z,60.40
2019-02-04T21:20:16.478Z,60.70
2019-02-04T21:22:44.697Z,61.00
2019-02-04T21:25:12.912Z,61.20
2019-02-04T21:27:41.108Z,61.10
2019-02-04T21:30:21.764Z,61.60
2019-02-04T21:32:49.961Z,61.50
2019-02-04T21:35:18.181Z,61.60
2019-02-04T21:37:46.367Z,61.60
2019-02-04T21:40:16.215Z,61.70
2019-02-04T21:42:44.868Z,62.40
2019-02-04T21:45:17.689Z,61.80
2019-02-04T21:47:45.876Z,61.80
2019-02-04T21:50:19.965Z,62.10
2019-02-04T21:52:48.168Z,61.70
2019-02-04T21:55:16.435Z,61.90
2019-02-04T21:57:45.028Z,61.80
2019-02-04T22:00:31.316Z,62.20
2019-02-04T22:02:59.507Z,62.50
2019-02-04T22:05:29.853Z,62.70
2019-02-04T22:07:58.060Z,62.70
2019-02-04T22:10:28.101Z,63.50
2019-02-04T22:12:56.581Z,62.70
2019-02-04T22:15:24.775Z,62.90
2019-02-04T22:17:52.994Z,62.70
2019-02-04T22:20:21.188Z,62.50
2019-02-04T22:22:49.401Z,62.60
2019-02-04T22:25:19.597Z,62.80
2019-02-04T22:27:48.231Z,62.90
2019-02-04T22:30:21.550Z,62.90
2019-02-04T22:32:49.756Z,63.40
2019-02-04T22:35:18.019Z,63.40
2019-02-04T22:37:46.238Z,63.80
2019-02-04T22:40:19.176Z,64.10
2019-02-04T22:42:47.796Z,64.10
2019-02-04T22:45:17.233Z,64.30
2019-02-04T22:47:45.592Z,64.60
2019-02-04T22:50:16.887Z,64.90
2019-02-04T22:52:45.096Z,65.00
2019-02-04T22:55:13.743Z,65.10
2019-02-04T22:57:41.952Z,65.20
2019-02-04T23:00:42.356Z,65.20
2019-02-04T23:03:11.179Z,65.50
2019-02-04T23:05:39.375Z,65.40
2019-02-04T23:08:07.660Z,66.40
2019-02-04T23:10:35.860Z,65.60
2019-02-04T23:13:04.644Z,65.80
2019-02-04T23:15:32.846Z,65.80
2019-02-04T23:18:01.051Z,66.50
2019-02-04T23:20:29.624Z,66.00
2019-02-04T23:22:57.859Z,65.80
2019-02-04T23:25:26.057Z,66.00
2019-02-04T23:27:54.277Z,66.20
2019-02-04T23:30:22.761Z,66.20
2019-02-04T23:32:50.955Z,66.40
2019-02-04T23:35:19.639Z,66.70
2019-02-04T23:37:47.845Z,66.80
2019-02-04T23:40:16.928Z,66.50
2019-02-04T23:42:45.128Z,66.40
2019-02-04T23:45:13.332Z,66.50
2019-02-04T23:47:41.533Z,66.60
2019-02-04T23:50:14.321Z,66.30
2019-02-04T23:52:42.788Z,66.20
2019-02-04T23:55:11.932Z,66.00
2019-02-04T23:57:40.143Z,66.10
